This is the latest recevied weather packets stored in our database for station/object IZ5MJO-13. If no packets are shown the sender has not sent any weather packets the latest 10 day(s).
| Time | Temp. | Humidity | Pressure | Rain* | Wind** | Luminosity | Snow |
|---|---|---|---|---|---|---|---|
| 1787947499 | 27.22° C | 59% | 1006 hPa | - | - | - | - |
| 1787947182 | 28.33° C | 55% | 1005.4 hPa | - | - | - | - |
| 1787946907 | 28.33° C | 54% | 1005.1 hPa | - | - | - | - |
| 1787946879 | 28.89° C | 53% | 1005 hPa | - | - | - | - |
| 1787946833 | 29.44° C | 52% | 1004.9 hPa | - | - | - | - |
| 1787946599 | 27.22° C | 58% | 1006 hPa | - | - | - | - |
| 1787945698 | 27.78° C | 57% | 1005.8 hPa | - | - | - | - |
| 1787944798 | 27.78° C | 57% | 1005.5 hPa | - | - | - | - |
| 1787943898 | 28.33° C | 56% | 1005.4 hPa | - | - | - | - |
| 1787942998 | 28.33° C | 55% | 1005.4 hPa | - | - | - | - |
| 1787942097 | 28.33° C | 54% | 1005.1 hPa | - | - | - | - |
| 1787941197 | 28.89° C | 53% | 1005 hPa | - | - | - | - |
| 1787940297 | 29.44° C | 52% | 1004.9 hPa | - | - | - | - |
| 1787939402 | 30° C | 50% | 1004.7 hPa | - | - | - | - |
| 1787938502 | 30° C | 49% | 1004.9 hPa | - | - | - | - |
| 1787937602 | 30.56° C | 46% | 1004.6 hPa | - | - | - | - |
| 1787936702 | 31.67° C | 44% | 1004.7 hPa | - | - | - | - |
| 1787935802 | 32.78° C | 42% | 1004.7 hPa | - | - | - | - |
| 1787934901 | 33.33° C | 41% | 1004.8 hPa | - | - | - | - |
| 1787934001 | 33.89° C | 39% | 1004.8 hPa | - | - | - | - |
| 1787933101 | 35.56° C | 39% | 1004.8 hPa | - | - | - | - |
| 1787932201 | 36.67° C | 38% | 1004.9 hPa | - | - | - | - |
| 1787931300 | 36.67° C | 38% | 1005 hPa | - | - | - | - |
| 1787930399 | 36.67° C | 37% | 1005.1 hPa | - | - | - | - |
| 1787929499 | 37.78° C | 38% | 1005.2 hPa | - | - | - | - |
* Rain since midnight (hover to see other rain measurements)
** Current wind speed in m/s (hover to see current wind gust speed)